createdAt,value
2018-04-08T00:00:11.755Z,97397.55
2018-04-08T00:01:15.295Z,97395.11
2018-04-08T00:02:18.820Z,97393.37
2018-04-08T00:03:22.465Z,97400.74
2018-04-08T00:04:25.997Z,97394.03
2018-04-08T00:05:29.549Z,97401.69
2018-04-08T00:06:33.209Z,97399.63
2018-04-08T00:07:36.812Z,97397.56
2018-04-08T00:08:40.273Z,97395.72
2018-04-08T00:09:43.617Z,97395.41
2018-04-08T00:10:47.528Z,97390.93
2018-04-08T00:11:51.963Z,97390.52
2018-04-08T00:12:55.620Z,97390.61
2018-04-08T00:13:59.200Z,97390.23
2018-04-08T00:15:02.834Z,97392.45
2018-04-08T00:16:06.506Z,97393.22
2018-04-08T00:17:10.413Z,97387.73
2018-04-08T00:18:13.924Z,97392.50
2018-04-08T00:19:17.545Z,97393.87
2018-04-08T00:20:21.267Z,97390.91
2018-04-08T00:21:24.949Z,97391.22
2018-04-08T00:22:28.560Z,97387.95
2018-04-08T00:23:32.799Z,97390.19
2018-04-08T00:24:36.532Z,97390.72
2018-04-08T00:25:40.208Z,97393.52
2018-04-08T00:26:43.991Z,97390.42
2018-04-08T00:27:47.705Z,97385.34
2018-04-08T00:28:51.499Z,97386.59
2018-04-08T00:29:55.651Z,97387.80
2018-04-08T00:30:59.156Z,97390.49
2018-04-08T00:32:02.905Z,97383.86
2018-04-08T00:33:06.669Z,97385.64
2018-04-08T00:34:10.148Z,97386.33
2018-04-08T00:35:13.712Z,97382.95
2018-04-08T00:36:17.680Z,97389.47
2018-04-08T00:37:21.372Z,97386.98
2018-04-08T00:38:25.123Z,97391.66
2018-04-08T00:39:29.835Z,97380.57
2018-04-08T00:40:33.403Z,97386.89
2018-04-08T00:41:36.913Z,97382.41
2018-04-08T00:42:40.816Z,97380.43
2018-04-08T00:43:44.551Z,97380.78
2018-04-08T00:44:48.300Z,97385.25
2018-04-08T00:45:52.050Z,97379.11
2018-04-08T00:46:55.752Z,97377.27
2018-04-08T00:47:59.557Z,97373.77
2018-04-08T00:49:03.651Z,97368.53
2018-04-08T00:50:07.509Z,97375.17
2018-04-08T00:51:11.186Z,97374.14
2018-04-08T00:52:14.986Z,97369.07
2018-04-08T00:53:18.931Z,97370.66
2018-04-08T00:54:22.811Z,97369.59
2018-04-08T00:55:27.046Z,97366.53
2018-04-08T00:56:31.014Z,97367.39
2018-04-08T00:57:34.517Z,97370.87
2018-04-08T00:58:37.898Z,97365.00
2018-04-08T00:59:41.301Z,97365.98
2018-04-08T01:00:44.779Z,97369.53
2018-04-08T01:01:48.478Z,97360.48
2018-04-08T01:02:52.257Z,97360.86
2018-04-08T01:03:55.915Z,97364.77
2018-04-08T01:04:59.531Z,97365.77
2018-04-08T01:06:03.177Z,97361.27
2018-04-08T01:07:07.246Z,97363.77
2018-04-08T01:08:10.777Z,97362.69
2018-04-08T01:09:14.247Z,97361.31
2018-04-08T01:10:18.062Z,97361.63
2018-04-08T01:11:21.839Z,97361.61
2018-04-08T01:12:25.416Z,97358.45
2018-04-08T01:13:29.802Z,97365.38
2018-04-08T01:14:33.745Z,97358.45
2018-04-08T01:15:37.393Z,97361.71
2018-04-08T01:16:41.269Z,97358.39
2018-04-08T01:17:45.129Z,97355.32
2018-04-08T01:18:48.927Z,97355.07
2018-04-08T01:19:52.962Z,97351.75
2018-04-08T01:20:56.544Z,97355.63
2018-04-08T01:22:00.171Z,97355.27
2018-04-08T01:23:03.638Z,97355.42
2018-04-08T01:24:07.120Z,97358.03
2018-04-08T01:25:10.705Z,97355.92
2018-04-08T01:26:14.691Z,97352.20
2018-04-08T01:27:18.308Z,97347.43
2018-04-08T01:28:21.743Z,97353.89
2018-04-08T01:29:25.197Z,97352.88
2018-04-08T01:30:28.871Z,97351.73
2018-04-08T01:31:32.342Z,97351.79
2018-04-08T01:32:36.494Z,97348.19
2018-04-08T01:33:40.169Z,97340.72
2018-04-08T01:34:43.704Z,97346.79
2018-04-08T01:35:47.034Z,97350.50
2018-04-08T01:36:50.652Z,97352.29
2018-04-08T01:37:54.308Z,97350.84
2018-04-08T01:38:58.485Z,97358.79
2018-04-08T01:40:02.141Z,97349.94
2018-04-08T01:41:05.511Z,97350.14
2018-04-08T01:42:08.915Z,97353.68
2018-04-08T01:43:12.520Z,97353.36
2018-04-08T01:44:15.946Z,97345.41
2018-04-08T01:45:19.924Z,97345.66
2018-04-08T01:46:23.476Z,97345.38
2018-04-08T01:47:27.135Z,97348.77
2018-04-08T01:48:30.761Z,97354.36
2018-04-08T01:49:34.330Z,97352.52
2018-04-08T01:50:37.771Z,97348.41
2018-04-08T01:51:41.426Z,97348.23
2018-04-08T01:52:44.784Z,97346.91
2018-04-08T01:53:48.125Z,97353.04
2018-04-08T01:54:51.267Z,97355.59
2018-04-08T01:55:54.451Z,97349.66
2018-04-08T01:56:57.969Z,97349.91
2018-04-08T01:58:01.546Z,97348.48
2018-04-08T01:59:05.814Z,97353.64
2018-04-08T02:00:09.380Z,97345.11
2018-04-08T02:01:12.807Z,97343.64
2018-04-08T02:02:16.074Z,97344.12
2018-04-08T02:03:19.577Z,97334.72
2018-04-08T02:04:23.100Z,97336.32
2018-04-08T02:05:26.866Z,97344.02
2018-04-08T02:06:30.233Z,97343.97
2018-04-08T02:07:33.627Z,97344.84
2018-04-08T02:08:37.050Z,97341.72
2018-04-08T02:09:40.809Z,97341.63
2018-04-08T02:10:44.205Z,97338.32
2018-04-08T02:11:47.604Z,97329.81
2018-04-08T02:12:51.184Z,97340.41
2018-04-08T02:13:54.448Z,97342.77
2018-04-08T02:14:57.782Z,97341.74
2018-04-08T02:16:01.673Z,97341.34
2018-04-08T02:17:05.083Z,97338.45
2018-04-08T02:18:08.415Z,97337.84
2018-04-08T02:19:11.737Z,97329.87
2018-04-08T02:20:15.034Z,97333.19
2018-04-08T02:21:18.350Z,97339.32
2018-04-08T02:22:21.837Z,97334.56
2018-04-08T02:23:25.375Z,97335.06
2018-04-08T02:24:28.764Z,97336.48
2018-04-08T02:25:31.944Z,97337.35
2018-04-08T02:26:35.012Z,97338.70
2018-04-08T02:27:38.200Z,97333.81
2018-04-08T02:28:41.953Z,97319.96
2018-04-08T02:29:45.215Z,97333.02
2018-04-08T02:30:48.397Z,97332.57
2018-04-08T02:31:51.918Z,97324.13
2018-04-08T02:32:55.016Z,97326.25
2018-04-08T02:33:58.349Z,97325.04
2018-04-08T02:35:02.159Z,97317.44
2018-04-08T02:36:05.410Z,97326.15
2018-04-08T02:37:08.832Z,97318.83
2018-04-08T02:38:12.222Z,97323.10
2018-04-08T02:39:15.531Z,97316.35
2018-04-08T02:40:18.659Z,97323.02
2018-04-08T02:41:22.217Z,97319.52
2018-04-08T02:42:25.543Z,97322.80
2018-04-08T02:43:28.776Z,97315.14
2018-04-08T02:44:32.077Z,97315.86
2018-04-08T02:45:35.472Z,97321.13
2018-04-08T02:46:38.445Z,97319.45
2018-04-08T02:47:42.024Z,97318.97
2018-04-08T02:48:45.093Z,97319.46
2018-04-08T02:49:48.185Z,97314.45
2018-04-08T02:50:51.490Z,97319.36
2018-04-08T02:51:54.610Z,97320.42
2018-04-08T02:52:57.695Z,97325.86
2018-04-08T02:54:01.304Z,97325.70
2018-04-08T02:55:04.763Z,97316.91
2018-04-08T02:56:07.956Z,97320.88
2018-04-08T02:57:11.527Z,97320.45
2018-04-08T02:58:14.742Z,97314.39
2018-04-08T02:59:17.844Z,97311.22
2018-04-08T03:00:21.573Z,97316.16
2018-04-08T03:01:24.712Z,97313.36
2018-04-08T03:02:27.727Z,97314.99
2018-04-08T03:03:32.022Z,97313.30
2018-04-08T03:04:35.251Z,97316.65
2018-04-08T03:05:38.411Z,97310.50
2018-04-08T03:06:41.783Z,97315.53
2018-04-08T03:07:44.858Z,97309.14
2018-04-08T03:08:48.064Z,97322.86
2018-04-08T03:09:51.388Z,97311.55
2018-04-08T03:10:54.456Z,97314.66
2018-04-08T03:11:57.598Z,97312.91
2018-04-08T03:13:01.128Z,97309.59
2018-04-08T03:14:04.159Z,97312.58
2018-04-08T03:15:07.261Z,97312.04
2018-04-08T03:16:10.520Z,97310.21
2018-04-08T03:17:13.630Z,97304.61
2018-04-08T03:18:16.742Z,97310.02
2018-04-08T03:19:20.427Z,97304.59
2018-04-08T03:20:23.541Z,97307.84
2018-04-08T03:21:27.003Z,97309.36
2018-04-08T03:22:30.209Z,97310.76
2018-04-08T03:23:33.345Z,97306.20
2018-04-08T03:24:36.434Z,97307.40
2018-04-08T03:25:39.919Z,97307.31
2018-04-08T03:26:43.003Z,97306.22
2018-04-08T03:27:46.117Z,97308.19
2018-04-08T03:28:49.270Z,97299.53
2018-04-08T03:29:52.367Z,97307.36
2018-04-08T03:30:55.540Z,97309.28
2018-04-08T03:31:59.047Z,97309.80
2018-04-08T03:33:02.094Z,97304.09
2018-04-08T03:34:05.162Z,97310.58
2018-04-08T03:35:08.236Z,97307.91
2018-04-08T03:36:11.316Z,97303.47
2018-04-08T03:37:14.362Z,97310.56
2018-04-08T03:38:17.840Z,97310.02
2018-04-08T03:39:20.910Z,97305.71
2018-04-08T03:40:23.996Z,97304.20
2018-04-08T03:41:27.066Z,97308.84
2018-04-08T03:42:30.112Z,97311.17
2018-04-08T03:43:33.322Z,97306.95
2018-04-08T03:44:36.821Z,97308.78
2018-04-08T03:45:39.863Z,97310.20
2018-04-08T03:46:42.806Z,97300.55
2018-04-08T03:47:45.818Z,97301.38
2018-04-08T03:48:49.712Z,97301.47
2018-04-08T03:49:52.796Z,97304.13
2018-04-08T03:50:56.134Z,97299.95
2018-04-08T03:51:59.354Z,97304.77
2018-04-08T03:53:02.383Z,97301.91
2018-04-08T03:54:05.578Z,97303.98
2018-04-08T03:55:08.844Z,97302.56
2018-04-08T03:56:12.030Z,97297.16
2018-04-08T03:57:16.487Z,97298.45
2018-04-08T03:58:19.504Z,97302.16
2018-04-08T03:59:22.690Z,97297.31
2018-04-08T04:00:25.922Z,97299.66
2018-04-08T04:01:29.256Z,97302.16
2018-04-08T04:02:32.590Z,97295.13
2018-04-08T04:03:36.330Z,97298.21
2018-04-08T04:04:39.327Z,97295.37
2018-04-08T04:05:42.511Z,97300.04
2018-04-08T04:06:45.729Z,97296.33
2018-04-08T04:07:48.940Z,97299.11
2018-04-08T04:08:52.067Z,97294.27
2018-04-08T04:09:55.496Z,97293.36
2018-04-08T04:10:58.704Z,97296.44
2018-04-08T04:12:01.954Z,97293.94
2018-04-08T04:13:05.334Z,97293.72
2018-04-08T04:14:08.474Z,97294.00
2018-04-08T04:15:11.634Z,97287.87
2018-04-08T04:16:15.020Z,97294.16
2018-04-08T04:17:18.534Z,97293.28
2018-04-08T04:18:21.805Z,97290.79
2018-04-08T04:19:24.864Z,97290.56
2018-04-08T04:20:27.841Z,97293.19
2018-04-08T04:21:31.034Z,97297.61
2018-04-08T04:22:34.440Z,97290.13
2018-04-08T04:23:37.523Z,97286.68
2018-04-08T04:24:40.716Z,97290.38
2018-04-08T04:25:44.300Z,97285.91
2018-04-08T04:26:47.381Z,97289.66
2018-04-08T04:27:50.472Z,97286.57
2018-04-08T04:28:54.003Z,97291.20
2018-04-08T04:29:57.107Z,97289.46
2018-04-08T04:31:00.282Z,97289.89
2018-04-08T04:32:03.830Z,97287.17
2018-04-08T04:33:06.879Z,97282.00
2018-04-08T04:34:09.822Z,97291.81
2018-04-08T04:35:13.267Z,97288.58
2018-04-08T04:36:16.239Z,97287.18
2018-04-08T04:37:19.808Z,97285.03
2018-04-08T04:38:22.698Z,97282.22
2018-04-08T04:39:25.723Z,97283.47
2018-04-08T04:40:28.903Z,97286.36
2018-04-08T04:41:32.306Z,97292.02
2018-04-08T04:42:35.379Z,97292.28
2018-04-08T04:43:38.458Z,97287.84
2018-04-08T04:44:42.300Z,97291.05
2018-04-08T04:45:45.387Z,97291.14
2018-04-08T04:46:49.520Z,97289.48
2018-04-08T04:47:53.283Z,97286.36
2018-04-08T04:48:56.358Z,97293.84
2018-04-08T04:49:59.450Z,97293.13
2018-04-08T04:51:02.560Z,97295.48
2018-04-08T04:52:05.625Z,97294.42
2018-04-08T04:53:08.661Z,97290.01
2018-04-08T04:54:12.177Z,97297.64
2018-04-08T04:55:15.207Z,97292.50
2018-04-08T04:56:18.436Z,97290.88
2018-04-08T04:57:21.456Z,97297.05
2018-04-08T04:58:24.535Z,97297.06
2018-04-08T04:59:27.436Z,97295.75
2018-04-08T05:00:30.907Z,97300.16
2018-04-08T05:01:33.882Z,97300.09
2018-04-08T05:02:37.355Z,97303.45
2018-04-08T05:03:40.398Z,97305.56
2018-04-08T05:04:43.362Z,97309.16
2018-04-08T05:05:46.249Z,97305.62
2018-04-08T05:06:49.606Z,97303.03
2018-04-08T05:07:52.445Z,97301.09
2018-04-08T05:08:55.617Z,97307.38
2018-04-08T05:09:58.732Z,97305.41
2018-04-08T05:11:01.936Z,97301.18
2018-04-08T05:12:05.048Z,97303.70
2018-04-08T05:13:08.546Z,97300.82
2018-04-08T05:14:11.587Z,97302.41
2018-04-08T05:15:14.629Z,97299.79
2018-04-08T05:16:17.673Z,97297.88
2018-04-08T05:17:20.797Z,97296.45
2018-04-08T05:18:23.928Z,97297.86
2018-04-08T05:19:27.594Z,97294.77
2018-04-08T05:20:30.705Z,97301.86
2018-04-08T05:21:33.787Z,97294.20
2018-04-08T05:22:37.169Z,97298.47
2018-04-08T05:23:40.239Z,97304.58
2018-04-08T05:24:43.356Z,97301.99
2018-04-08T05:25:46.764Z,97300.06
2018-04-08T05:26:49.898Z,97310.81
2018-04-08T05:27:53.074Z,97307.27
2018-04-08T05:28:56.270Z,97304.54
2018-04-08T05:29:59.381Z,97298.84
2018-04-08T05:31:02.492Z,97303.95
2018-04-08T05:32:06.073Z,97305.42
2018-04-08T05:33:09.147Z,97305.78
2018-04-08T05:34:12.467Z,97301.50
2018-04-08T05:35:15.618Z,97302.67
2018-04-08T05:36:18.775Z,97304.34
2018-04-08T05:37:21.821Z,97307.48
2018-04-08T05:38:25.627Z,97306.69
2018-04-08T05:39:28.668Z,97302.97
2018-04-08T05:40:31.879Z,97303.27
2018-04-08T05:41:35.062Z,97306.53
2018-04-08T05:42:38.096Z,97300.64
2018-04-08T05:43:41.382Z,97301.88
2018-04-08T05:44:44.840Z,97298.24
2018-04-08T05:45:48.034Z,97300.78
2018-04-08T05:46:51.480Z,97298.05
2018-04-08T05:47:54.560Z,97294.41
2018-04-08T05:48:57.757Z,97295.69
2018-04-08T05:50:01.122Z,97294.48
2018-04-08T05:51:04.506Z,97293.52
2018-04-08T05:52:07.765Z,97293.95
2018-04-08T05:53:11.116Z,97294.13
2018-04-08T05:54:14.339Z,97297.12
2018-04-08T05:55:17.467Z,97301.19
2018-04-08T05:56:20.709Z,97299.39
2018-04-08T05:57:24.460Z,97298.94
2018-04-08T05:58:27.765Z,97295.41
2018-04-08T05:59:31.038Z,97301.22
2018-04-08T06:00:35.272Z,97297.59
2018-04-08T06:01:38.729Z,97298.53
2018-04-08T06:02:42.057Z,97294.70
2018-04-08T06:03:45.631Z,97296.94
2018-04-08T06:04:49.167Z,97299.88
2018-04-08T06:05:52.316Z,97293.25
2018-04-08T06:06:55.581Z,97299.89
2018-04-08T06:07:58.771Z,97307.05
2018-04-08T06:09:01.987Z,97304.21
2018-04-08T06:10:05.777Z,97305.40
2018-04-08T06:11:09.054Z,97310.44
2018-04-08T06:12:12.602Z,97300.86
2018-04-08T06:13:15.964Z,97300.92
2018-04-08T06:14:19.548Z,97300.19
2018-04-08T06:15:22.874Z,97301.16
2018-04-08T06:16:26.486Z,97302.23
2018-04-08T06:17:29.616Z,97297.07
2018-04-08T06:18:33.074Z,97295.56
2018-04-08T06:19:36.464Z,97301.83
2018-04-08T06:20:39.873Z,97301.58
2018-04-08T06:21:43.066Z,97301.48
2018-04-08T06:22:46.762Z,97297.45
2018-04-08T06:23:50.415Z,97305.67
2018-04-08T06:24:53.911Z,97295.80
2018-04-08T06:25:57.298Z,97294.11
2018-04-08T06:27:00.712Z,97293.84
2018-04-08T06:28:04.255Z,97291.38
2018-04-08T06:29:08.183Z,97287.16
2018-04-08T06:30:11.758Z,97291.25
2018-04-08T06:31:15.906Z,97293.11
2018-04-08T06:32:19.404Z,97291.90
2018-04-08T06:33:22.793Z,97296.08
2018-04-08T06:34:26.184Z,97292.84
2018-04-08T06:35:30.269Z,97291.95
2018-04-08T06:36:34.107Z,97291.33
2018-04-08T06:37:37.864Z,97292.47
2018-04-08T06:38:41.532Z,97283.38
2018-04-08T06:39:45.292Z,97283.02
2018-04-08T06:40:48.903Z,97289.36
2018-04-08T06:41:53.005Z,97287.83
2018-04-08T06:42:56.844Z,97292.24
2018-04-08T06:44:00.501Z,97293.92
2018-04-08T06:45:03.957Z,97293.63
2018-04-08T06:46:07.356Z,97290.78
2018-04-08T06:47:11.608Z,97292.45
2018-04-08T06:48:15.707Z,97295.00
2018-04-08T06:49:19.663Z,97291.96
2018-04-08T06:50:23.514Z,97292.55
2018-04-08T06:51:27.270Z,97294.70
2018-04-08T06:52:30.799Z,97295.31
2018-04-08T06:53:34.619Z,97295.96
2018-04-08T06:54:38.999Z,97295.66
2018-04-08T06:55:42.774Z,97295.45
2018-04-08T06:56:46.361Z,97297.58
2018-04-08T06:57:50.155Z,97303.61
2018-04-08T06:58:53.889Z,97303.07
2018-04-08T06:59:57.749Z,97302.69
2018-04-08T07:01:01.907Z,97299.80
2018-04-08T07:02:05.449Z,97302.63
2018-04-08T07:03:09.029Z,97301.08
2018-04-08T07:04:13.076Z,97300.32
2018-04-08T07:05:16.911Z,97294.41
2018-04-08T07:06:20.372Z,97297.89
2018-04-08T07:07:24.605Z,97293.73
2018-04-08T07:08:28.694Z,97290.86
2018-04-08T07:09:32.319Z,97295.09
2018-04-08T07:10:36.062Z,97293.86
2018-04-08T07:11:40.197Z,97292.44
2018-04-08T07:12:43.894Z,97297.95
2018-04-08T07:13:48.327Z,97292.21
2018-04-08T07:14:52.314Z,97295.59
2018-04-08T07:15:57.348Z,97292.02
2018-04-08T07:17:00.922Z,97292.91
2018-04-08T07:18:04.876Z,97295.52
2018-04-08T07:19:09.149Z,97294.41
2018-04-08T07:20:13.847Z,97289.92
2018-04-08T07:21:17.768Z,97294.47
2018-04-08T07:22:22.298Z,97289.90
2018-04-08T07:23:26.822Z,97289.28
2018-04-08T07:24:31.262Z,97291.32
2018-04-08T07:25:35.233Z,97292.47
2018-04-08T07:26:38.908Z,97294.84
2018-04-08T07:27:42.601Z,97296.00
2018-04-08T07:28:46.430Z,97287.83
2018-04-08T07:29:51.105Z,97291.77
2018-04-08T07:30:55.152Z,97292.76
2018-04-08T07:32:00.623Z,97287.31
2018-04-08T07:33:05.664Z,97291.77
2018-04-08T07:34:09.814Z,97292.58
2018-04-08T07:35:13.925Z,97300.88
2018-04-08T07:36:17.907Z,97298.98
2018-04-08T07:37:21.533Z,97299.23
2018-04-08T07:38:25.056Z,97299.63
2018-04-08T07:39:29.262Z,97304.61
2018-04-08T07:40:34.317Z,97300.14
2018-04-08T07:41:38.927Z,97303.89
2018-04-08T07:42:43.043Z,97309.53
2018-04-08T07:43:46.769Z,97308.18
2018-04-08T07:44:50.387Z,97310.27
2018-04-08T07:45:54.481Z,97310.03
2018-04-08T07:46:58.044Z,97306.94
2018-04-08T07:48:02.570Z,97304.67
2018-04-08T07:49:07.125Z,97309.61
2018-04-08T07:50:12.580Z,97307.84
2018-04-08T07:51:16.944Z,97301.97
2018-04-08T07:52:21.482Z,97302.02
2018-04-08T07:53:26.016Z,97301.90
2018-04-08T07:54:29.627Z,97301.88
2018-04-08T07:55:33.137Z,97296.11
2018-04-08T07:56:36.693Z,97299.81
2018-04-08T07:57:40.547Z,97295.40
2018-04-08T07:58:46.394Z,97296.00
2018-04-08T07:59:50.323Z,97297.67
2018-04-08T08:00:55.819Z,97293.30
2018-04-08T08:02:02.056Z,97294.81
2018-04-08T08:03:07.014Z,97288.74
2018-04-08T08:04:11.348Z,97287.20
2018-04-08T08:05:15.273Z,97288.91
2018-04-08T08:06:19.053Z,97293.92
2018-04-08T08:07:22.641Z,97294.81
2018-04-08T08:08:26.321Z,97289.88
2018-04-08T08:09:30.036Z,97285.46
2018-04-08T08:10:36.135Z,97292.79
2018-04-08T08:11:40.598Z,97293.80
2018-04-08T08:12:44.852Z,97295.92
2018-04-08T08:13:48.390Z,97293.16
2018-04-08T08:14:52.161Z,97293.41
2018-04-08T08:15:55.821Z,97297.45
2018-04-08T08:16:59.401Z,97298.47
2018-04-08T08:18:03.399Z,97295.93
2018-04-08T08:19:07.754Z,97297.20
2018-04-08T08:20:11.632Z,97294.41
2018-04-08T08:21:15.433Z,97295.72
2018-04-08T08:22:19.895Z,97296.73
2018-04-08T08:23:23.986Z,97298.84
2018-04-08T08:24:27.652Z,97297.95
2018-04-08T08:25:31.327Z,97300.44
2018-04-08T08:26:35.116Z,97293.20
2018-04-08T08:27:38.941Z,97296.37
2018-04-08T08:28:43.670Z,97297.14
2018-04-08T08:29:47.565Z,97298.59
2018-04-08T08:30:51.224Z,97300.42
2018-04-08T08:31:54.709Z,97297.24
2018-04-08T08:32:58.065Z,97297.01
2018-04-08T08:34:01.936Z,97294.25
2018-04-08T08:35:06.169Z,97292.27
2018-04-08T08:36:09.983Z,97290.26
2018-04-08T08:37:13.655Z,97288.97
2018-04-08T08:38:17.269Z,97291.57
2018-04-08T08:39:20.658Z,97290.81
2018-04-08T08:40:24.126Z,97289.69
2018-04-08T08:41:28.438Z,97289.42
2018-04-08T08:42:32.514Z,97285.53
2018-04-08T08:43:37.224Z,97286.13
2018-04-08T08:44:40.989Z,97285.97
2018-04-08T08:45:44.511Z,97286.72
2018-04-08T08:46:47.865Z,97283.39
2018-04-08T08:47:51.935Z,97286.59
2018-04-08T08:48:55.683Z,97286.86
2018-04-08T08:49:59.483Z,97286.48
2018-04-08T08:51:03.039Z,97288.24
2018-04-08T08:52:06.439Z,97290.38
2018-04-08T08:53:09.832Z,97283.19
2018-04-08T08:54:14.350Z,97280.70
2018-04-08T08:55:18.541Z,97282.56
2018-04-08T08:56:22.597Z,97279.18
2018-04-08T08:57:25.975Z,97285.50
2018-04-08T08:58:29.569Z,97288.48
2018-04-08T08:59:33.177Z,97288.38
2018-04-08T09:00:37.421Z,97279.91
2018-04-08T09:01:41.575Z,97280.36
2018-04-08T09:02:46.641Z,97282.58
2018-04-08T09:03:51.327Z,97280.22
2018-04-08T09:04:56.526Z,97287.73
2018-04-08T09:06:00.161Z,97285.25
2018-04-08T09:07:04.020Z,97286.22
2018-04-08T09:08:07.793Z,97283.83
2018-04-08T09:09:11.248Z,97282.78
2018-04-08T09:10:15.093Z,97273.62
2018-04-08T09:11:19.594Z,97279.52
2018-04-08T09:12:23.314Z,97276.34
2018-04-08T09:13:27.034Z,97273.50
2018-04-08T09:14:30.512Z,97270.25
2018-04-08T09:15:34.263Z,97279.34
2018-04-08T09:16:38.742Z,97271.13
2018-04-08T09:17:42.724Z,97273.41
2018-04-08T09:18:47.047Z,97274.14
2018-04-08T09:19:51.460Z,97271.84
2018-04-08T09:20:55.072Z,97271.94
2018-04-08T09:21:58.733Z,97271.86
2018-04-08T09:23:02.653Z,97269.84
2018-04-08T09:24:06.544Z,97276.69
2018-04-08T09:25:11.481Z,97273.03
2018-04-08T09:26:15.974Z,97266.20
2018-04-08T09:27:20.457Z,97272.29
2018-04-08T09:28:23.862Z,97266.75
2018-04-08T09:29:27.402Z,97270.50
2018-04-08T09:30:30.641Z,97266.44
2018-04-08T09:31:34.544Z,97267.73
2018-04-08T09:32:38.704Z,97261.44
2018-04-08T09:33:43.656Z,97261.73
2018-04-08T09:34:47.415Z,97263.73
2018-04-08T09:35:50.866Z,97258.92
2018-04-08T09:36:54.325Z,97256.00
2018-04-08T09:37:57.714Z,97259.53
2018-04-08T09:39:02.119Z,97260.83
2018-04-08T09:40:06.003Z,97265.37
2018-04-08T09:41:09.808Z,97261.52
2018-04-08T09:42:13.924Z,97265.50
2018-04-08T09:43:17.498Z,97268.30
2018-04-08T09:44:20.437Z,97266.54
2018-04-08T09:45:23.761Z,97259.41
2018-04-08T09:46:27.159Z,97261.67
2018-04-08T09:47:30.373Z,97254.22
2018-04-08T09:48:33.437Z,97260.72
2018-04-08T09:49:36.287Z,97258.77
2018-04-08T09:50:40.033Z,97264.60
2018-04-08T09:51:43.442Z,97264.56
2018-04-08T09:52:46.825Z,97266.59
2018-04-08T09:53:49.662Z,97268.42
2018-04-08T09:54:53.852Z,97261.48
2018-04-08T09:57:11.885Z,97271.29
2018-04-08T09:58:17.227Z,97251.27
2018-04-08T09:59:22.322Z,97258.76
2018-04-08T10:00:27.187Z,97264.23
2018-04-08T10:01:36.108Z,97259.72
2018-04-08T10:02:43.219Z,97258.89
2018-04-08T10:03:50.638Z,97255.08
2018-04-08T10:04:57.914Z,97256.27
2018-04-08T10:06:04.642Z,97259.88
2018-04-08T10:07:09.753Z,97258.55
2018-04-08T10:08:14.579Z,97256.53
2018-04-08T10:09:20.338Z,97250.27
2018-04-08T10:10:26.453Z,97248.91
2018-04-08T10:11:34.308Z,97253.09
2018-04-08T10:12:41.632Z,97249.80
2018-04-08T10:13:46.805Z,97245.58
2018-04-08T10:14:54.600Z,97246.45
2018-04-08T10:16:00.439Z,97250.66
2018-04-08T10:17:07.238Z,97254.42
2018-04-08T10:18:12.671Z,97250.90
2018-04-08T10:19:18.217Z,97253.45
2018-04-08T10:20:24.047Z,97249.63
2018-04-08T10:21:29.204Z,97247.64
2018-04-08T10:22:33.083Z,97250.70
2018-04-08T10:23:37.378Z,97246.40
2018-04-08T10:24:42.924Z,97249.25
2018-04-08T10:25:48.581Z,97241.23
2018-04-08T10:26:54.381Z,97243.50
2018-04-08T10:27:59.597Z,97246.09
2018-04-08T10:29:05.349Z,97244.84
2018-04-08T10:30:11.941Z,97250.99
2018-04-08T10:31:16.514Z,97242.17
2018-04-08T10:32:22.655Z,97242.72
2018-04-08T10:33:29.539Z,97241.83
2018-04-08T10:34:35.760Z,97241.70
2018-04-08T10:35:40.507Z,97240.48
2018-04-08T10:36:45.721Z,97239.80
2018-04-08T10:37:49.682Z,97237.81
2018-04-08T10:38:57.113Z,97236.13
2018-04-08T10:40:02.342Z,97233.72
2018-04-08T10:41:11.952Z,97231.80
2018-04-08T10:42:18.952Z,97237.77
2018-04-08T10:43:25.411Z,97236.13
2018-04-08T10:44:30.949Z,97237.84
2018-04-08T10:45:36.240Z,97240.56
2018-04-08T10:46:41.863Z,97238.52
2018-04-08T10:47:46.566Z,97241.52
2018-04-08T10:48:50.897Z,97238.52
2018-04-08T10:49:58.493Z,97241.26
2018-04-08T10:51:07.987Z,97238.28
2018-04-08T10:52:11.565Z,97239.22
2018-04-08T10:53:23.742Z,97241.33
2018-04-08T10:54:29.246Z,97239.72
2018-04-08T10:55:35.465Z,97236.95
2018-04-08T10:56:44.494Z,97237.28
2018-04-08T10:57:49.726Z,97236.60
2018-04-08T10:58:54.969Z,97233.92
2018-04-08T11:00:02.526Z,97240.50
2018-04-08T11:01:10.949Z,97237.19
2018-04-08T11:02:17.975Z,97237.92
2018-04-08T11:03:23.905Z,97233.81
2018-04-08T11:04:32.324Z,97232.39
2018-04-08T11:05:37.332Z,97228.12
2018-04-08T11:06:44.586Z,97228.77
2018-04-08T11:07:51.685Z,97218.84
2018-04-08T11:08:55.350Z,97221.13
2018-04-08T11:10:02.284Z,97219.89
2018-04-08T11:11:10.139Z,97213.95
2018-04-08T11:12:16.783Z,97219.21
2018-04-08T11:13:20.149Z,97223.17
2018-04-08T11:14:23.264Z,97220.13
2018-04-08T11:15:27.586Z,97219.13
2018-04-08T11:16:33.526Z,97216.13
2018-04-08T11:17:40.810Z,97216.53
2018-04-08T11:18:45.295Z,97210.88
2018-04-08T11:19:49.568Z,97214.03
2018-04-08T11:20:55.514Z,97210.23
2018-04-08T11:22:02.905Z,97205.73
2018-04-08T11:23:09.911Z,97207.30
2018-04-08T11:24:17.290Z,97198.05
2018-04-08T11:25:22.434Z,97203.08
2018-04-08T11:26:29.288Z,97204.52
2018-04-08T11:27:36.553Z,97194.55
2018-04-08T11:28:43.779Z,97200.54
2018-04-08T11:29:48.254Z,97202.89
2018-04-08T11:30:51.700Z,97200.39
2018-04-08T11:31:56.881Z,97199.09
2018-04-08T11:33:02.892Z,97194.99
2018-04-08T11:34:12.433Z,97184.16
2018-04-08T11:35:19.426Z,97189.80
2018-04-08T11:36:26.595Z,97191.45
2018-04-08T11:37:32.316Z,97185.45
2018-04-08T11:38:38.115Z,97185.31
2018-04-08T11:39:45.093Z,97181.76
2018-04-08T11:40:53.113Z,97181.80
2018-04-08T11:41:59.157Z,97181.73
2018-04-08T11:43:05.424Z,97178.33
2018-04-08T11:44:13.266Z,97178.81
2018-04-08T11:45:18.932Z,97178.20
2018-04-08T11:46:27.220Z,97181.58
2018-04-08T11:47:32.896Z,97178.70
2018-04-08T11:48:37.123Z,97181.37
2018-04-08T11:49:42.355Z,97175.87
2018-04-08T11:50:46.363Z,97176.83
2018-04-08T11:51:50.812Z,97171.30
2018-04-08T11:52:57.440Z,97175.52
2018-04-08T11:54:04.147Z,97177.08
2018-04-08T11:55:10.082Z,97183.52
2018-04-08T11:56:18.315Z,97170.58
2018-04-08T11:57:24.097Z,97167.02
2018-04-08T11:58:31.414Z,97174.02
2018-04-08T11:59:44.180Z,97178.20
2018-04-08T12:00:50.035Z,97168.91
2018-04-08T12:01:57.478Z,97164.67
2018-04-08T12:05:35.259Z,97165.73
2018-04-08T12:06:42.790Z,97164.56
2018-04-08T12:09:07.528Z,97166.55
2018-04-08T12:10:14.510Z,97155.66
2018-04-08T12:11:21.850Z,97170.84
2018-04-08T12:12:30.239Z,97164.19
2018-04-08T12:13:38.764Z,97164.59
2018-04-08T12:14:50.032Z,97160.40
2018-04-08T12:15:58.937Z,97157.02
2018-04-08T12:17:06.475Z,97152.56
2018-04-08T12:19:30.637Z,97152.55
2018-04-08T12:20:39.531Z,97157.09
2018-04-08T12:21:46.390Z,97157.50
2018-04-08T12:22:56.766Z,97146.12
2018-04-08T12:24:00.451Z,97147.16
2018-04-08T12:25:06.626Z,97149.91
2018-04-08T12:26:11.878Z,97143.26
2018-04-08T12:27:19.710Z,97147.88
2018-04-08T12:28:24.615Z,97148.30
2018-04-08T12:29:31.377Z,97141.80
2018-04-08T12:30:37.633Z,97146.47
2018-04-08T12:31:43.551Z,97141.20
2018-04-08T12:32:50.648Z,97148.67
2018-04-08T12:33:54.716Z,97147.58
2018-04-08T12:35:01.538Z,97136.04
2018-04-08T12:36:07.609Z,97143.77
2018-04-08T12:37:15.129Z,97143.98
2018-04-08T12:38:23.211Z,97144.20
2018-04-08T12:39:29.146Z,97132.55